createdAt,value
2019-04-10T00:01:45.283Z,24.80
2019-04-10T00:06:49.992Z,27.03
2019-04-10T00:11:53.565Z,28.67
2019-04-10T00:16:57.007Z,27.67
2019-04-10T00:22:00.075Z,26.90
2019-04-10T00:27:04.079Z,27.73
2019-04-10T00:32:07.871Z,28.30
2019-04-10T00:37:22.071Z,27.17
2019-04-10T00:42:16.846Z,27.87
2019-04-10T00:47:21.217Z,28.37
2019-04-10T00:52:24.666Z,28.07
2019-04-10T00:57:28.063Z,29.37
2019-04-10T01:02:32.371Z,28.57
2019-04-10T01:07:39.538Z,28.73
2019-04-10T01:12:40.990Z,27.77
2019-04-10T01:17:44.516Z,28.53
2019-04-10T01:22:47.880Z,29.70
2019-04-10T01:27:52.175Z,28.43
2019-04-10T01:32:56.412Z,29.50
2019-04-10T01:38:02.428Z,29.73
2019-04-10T01:43:11.521Z,30.03
2019-04-10T01:48:10.486Z,30.47
2019-04-10T01:53:13.963Z,31.17
2019-04-10T01:58:19.140Z,31.37
2019-04-10T02:03:22.906Z,31.53
2019-04-10T02:08:26.366Z,31.03
2019-04-10T02:13:30.040Z,31.83
2019-04-10T02:18:33.787Z,31.07
2019-04-10T02:23:38.539Z,30.93
2019-04-10T02:28:42.945Z,31.37
2019-04-10T02:33:47.398Z,34.27
2019-04-10T02:39:04.591Z,31.83
2019-04-10T02:43:57.854Z,32.13
2019-04-10T02:49:01.731Z,32.90
2019-04-10T02:54:05.676Z,31.30
2019-04-10T02:59:09.508Z,35.00
2019-04-10T03:04:14.188Z,34.43
2019-04-10T03:09:32.629Z,35.13
2019-04-10T03:14:24.167Z,36.03
2019-04-10T03:19:27.725Z,34.03
2019-04-10T03:24:31.598Z,34.70
2019-04-10T03:29:35.903Z,35.58
2019-04-10T03:34:49.065Z,38.03
2019-04-10T03:39:53.209Z,36.37
2019-04-10T03:44:57.214Z,35.40
2019-04-10T03:50:00.629Z,36.47
2019-04-10T03:55:05.575Z,35.17
2019-04-10T04:00:10.122Z,36.03
2019-04-10T04:05:13.550Z,35.87
2019-04-10T04:10:16.961Z,38.73
2019-04-10T04:15:20.670Z,37.90
2019-04-10T04:20:23.765Z,37.23
2019-04-10T04:25:26.850Z,36.90
2019-04-10T04:30:30.262Z,36.50
2019-04-10T04:35:34.617Z,38.60
2019-04-10T04:40:38.887Z,38.20
2019-04-10T04:45:42.290Z,40.65
2019-04-10T04:50:45.851Z,39.10
2019-04-10T04:55:49.274Z,38.80
2019-04-10T05:00:52.798Z,38.97
2019-04-10T05:05:56.495Z,38.00
2019-04-10T05:11:00.168Z,38.17
2019-04-10T05:16:03.371Z,36.73
2019-04-10T05:21:06.718Z,35.30
2019-04-10T05:26:10.444Z,35.87
2019-04-10T05:31:15.119Z,38.47
2019-04-10T05:36:19.398Z,35.23
2019-04-10T05:41:23.269Z,38.43
2019-04-10T05:46:28.366Z,34.23
2019-04-10T05:51:32.973Z,33.17
2019-04-10T05:56:36.519Z,33.10
2019-04-10T06:01:41.701Z,32.80
2019-04-10T06:06:44.983Z,35.47
2019-04-10T06:11:49.001Z,31.77
2019-04-10T06:16:53.100Z,30.70
2019-04-10T06:21:56.684Z,31.17
2019-04-10T06:26:59.787Z,29.33
2019-04-10T06:32:03.537Z,31.07
2019-04-10T06:37:08.085Z,29.60
2019-04-10T06:42:12.091Z,27.97
2019-04-10T06:47:15.243Z,28.23
2019-04-10T06:52:19.042Z,27.17
2019-04-10T06:57:22.944Z,27.13
2019-04-10T07:02:29.506Z,25.10
2019-04-10T07:07:45.228Z,21.43
2019-04-10T07:12:37.839Z,18.97
2019-04-10T07:17:41.852Z,18.17
2019-04-10T07:22:47.203Z,18.33
2019-04-10T07:27:52.116Z,18.30
2019-04-10T07:32:55.820Z,16.63
2019-04-10T07:38:01.388Z,17.63
2019-04-10T07:43:04.863Z,17.37
2019-04-10T07:48:08.714Z,16.23
2019-04-10T07:53:12.785Z,16.90
2019-04-10T07:58:15.930Z,17.10
2019-04-10T08:03:19.349Z,18.77
2019-04-10T08:08:23.628Z,18.10
2019-04-10T08:13:27.503Z,20.97
2019-04-10T08:18:31.692Z,17.63
2019-04-10T08:23:35.724Z,17.37
2019-04-10T08:28:39.478Z,17.13
2019-04-10T08:33:44.073Z,17.48
2019-04-10T08:38:48.620Z,18.10
2019-04-10T08:43:52.690Z,18.10
2019-04-10T08:48:56.099Z,17.60
2019-04-10T08:53:59.174Z,20.27
2019-04-10T08:59:03.438Z,17.23
2019-04-10T09:04:07.778Z,17.80
2019-04-10T09:09:11.724Z,18.60
2019-04-10T09:14:15.434Z,16.63
2019-04-10T09:19:19.086Z,16.70
2019-04-10T09:24:23.795Z,16.00
2019-04-10T09:29:27.933Z,16.23
2019-04-10T09:34:31.828Z,16.40
2019-04-10T09:39:35.941Z,17.20
2019-04-10T09:44:40.086Z,16.73
2019-04-10T09:49:46.261Z,16.07
2019-04-10T09:54:48.997Z,15.30
2019-04-10T09:59:52.673Z,15.80
2019-04-10T10:04:56.471Z,15.57
2019-04-10T10:10:00.882Z,14.57
2019-04-10T10:15:09.476Z,15.40
2019-04-10T10:20:13.346Z,16.17
2019-04-10T10:25:17.378Z,15.10
2019-04-10T10:30:21.164Z,14.53
2019-04-10T10:35:25.203Z,15.60
2019-04-10T10:40:29.719Z,14.40
2019-04-10T10:45:33.022Z,14.40
2019-04-10T10:50:37.277Z,14.27
2019-04-10T10:55:40.790Z,16.50
2019-04-10T11:00:47.366Z,12.37
2019-04-10T11:05:50.773Z,12.87
2019-04-10T11:10:55.961Z,13.17
2019-04-10T11:16:03.730Z,12.20
2019-04-10T11:21:08.339Z,13.03
2019-04-10T11:26:10.957Z,14.43
2019-04-10T11:31:15.930Z,13.43
2019-04-10T11:36:20.276Z,12.47
2019-04-10T11:41:26.124Z,13.60
2019-04-10T11:46:31.911Z,13.33
2019-04-10T11:51:36.120Z,14.13
2019-04-10T11:56:38.986Z,14.77
2019-04-10T12:01:43.934Z,13.63
2019-04-10T12:06:51.807Z,14.23
2019-04-10T12:11:53.093Z,14.33
2019-04-10T12:16:57.750Z,14.53
2019-04-10T12:22:00.849Z,14.27
2019-04-10T12:27:04.550Z,14.50
2019-04-10T12:32:08.237Z,13.47
2019-04-10T12:37:11.492Z,13.73
2019-04-10T12:42:14.919Z,13.97
2019-04-10T12:47:18.597Z,13.53
2019-04-10T12:52:22.753Z,13.90
2019-04-10T12:57:26.681Z,12.93
2019-04-10T13:02:30.325Z,13.23
2019-04-10T13:07:33.828Z,12.70
2019-04-10T13:12:37.773Z,11.77
2019-04-10T13:17:40.903Z,12.23
2019-04-10T13:22:44.371Z,11.70
2019-04-10T13:27:47.953Z,11.50
2019-04-10T13:32:51.940Z,11.27
2019-04-10T13:37:56.855Z,10.70
2019-04-10T13:43:01.218Z,10.90
2019-04-10T13:48:06.123Z,11.47
2019-04-10T13:53:09.971Z,10.77
2019-04-10T13:58:13.790Z,11.37
2019-04-10T14:03:19.299Z,10.30
2019-04-10T14:08:35.997Z,11.43
2019-04-10T14:13:27.954Z,9.93
2019-04-10T14:18:31.630Z,9.40
2019-04-10T14:23:35.363Z,10.15
2019-04-10T14:28:38.599Z,9.20
2019-04-10T14:33:41.741Z,9.47
2019-04-10T14:38:45.422Z,10.37
2019-04-10T14:43:48.831Z,9.93
2019-04-10T14:48:52.240Z,9.17
2019-04-10T14:53:55.444Z,9.53
2019-04-10T14:58:59.593Z,9.17
2019-04-10T15:04:04.618Z,9.70
2019-04-10T15:09:20.085Z,9.50
2019-04-10T15:14:15.189Z,10.17
2019-04-10T15:19:18.769Z,8.50
2019-04-10T15:24:21.872Z,9.13
2019-04-10T15:29:25.007Z,9.30
2019-04-10T15:34:28.289Z,9.53
2019-04-10T15:39:35.794Z,9.07
2019-04-10T15:44:36.878Z,12.33
2019-04-10T15:49:40.868Z,10.00
2019-04-10T15:54:44.479Z,10.20
2019-04-10T15:59:48.337Z,12.17
2019-04-10T16:04:51.785Z,11.40
2019-04-10T16:09:57.996Z,13.00
2019-04-10T16:15:02.864Z,12.20
2019-04-10T16:20:19.576Z,13.00
2019-04-10T16:25:29.921Z,13.70
2019-04-10T16:30:34.856Z,13.90
2019-04-10T16:35:38.434Z,13.27
2019-04-10T16:40:41.687Z,12.47
2019-04-10T16:45:45.218Z,12.97
2019-04-10T16:50:48.320Z,12.83
2019-04-10T16:55:52.017Z,12.63
2019-04-10T17:00:55.922Z,12.27
2019-04-10T17:05:59.375Z,11.40
2019-04-10T17:11:04.953Z,12.70
2019-04-10T17:16:09.274Z,11.33
2019-04-10T17:21:13.072Z,11.47
2019-04-10T17:26:17.118Z,12.27
2019-04-10T17:31:22.480Z,11.47
2019-04-10T17:36:27.185Z,10.90
2019-04-10T17:41:31.400Z,11.97
2019-04-10T17:46:35.853Z,11.67
2019-04-10T17:51:39.619Z,11.00
2019-04-10T17:56:44.326Z,11.00
2019-04-10T18:01:47.934Z,11.57
2019-04-10T18:06:52.021Z,13.20
2019-04-10T18:11:56.141Z,11.73
2019-04-10T18:17:00.445Z,13.30
2019-04-10T18:22:04.073Z,12.40
2019-04-10T18:27:08.981Z,12.70
2019-04-10T18:32:12.090Z,14.00
2019-04-10T18:37:18.967Z,11.43
2019-04-10T18:42:22.861Z,11.87
2019-04-10T18:47:27.024Z,12.47
2019-04-10T18:52:31.614Z,12.17
2019-04-10T18:57:35.743Z,11.37
2019-04-10T19:02:43.838Z,11.67
2019-04-10T19:07:48.140Z,11.13
2019-04-10T19:12:52.842Z,11.67
2019-04-10T19:17:57.546Z,13.27
2019-04-10T19:23:01.408Z,11.53
2019-04-10T19:28:05.028Z,11.53
2019-04-10T19:33:08.653Z,11.23
2019-04-10T19:38:12.073Z,11.90
2019-04-10T19:43:15.920Z,11.77
2019-04-10T19:48:19.466Z,12.07
2019-04-10T19:53:22.881Z,12.07
2019-04-10T19:58:26.366Z,12.67
2019-04-10T20:03:29.916Z,12.70
2019-04-10T20:08:33.555Z,12.37
2019-04-10T20:13:36.991Z,11.33
2019-04-10T20:18:41.219Z,13.47
2019-04-10T20:23:44.438Z,12.90
2019-04-10T20:28:47.866Z,12.10
2019-04-10T20:33:51.269Z,11.93
2019-04-10T20:38:54.713Z,12.13
2019-04-10T20:43:59.510Z,11.40
2019-04-10T20:49:03.089Z,11.37
2019-04-10T20:54:06.942Z,11.93
2019-04-10T20:59:10.650Z,11.90
2019-04-10T21:04:15.095Z,12.13
2019-04-10T21:09:19.096Z,12.63
2019-04-10T21:14:23.333Z,11.63
2019-04-10T21:19:27.098Z,12.17
2019-04-10T21:24:31.476Z,12.57
2019-04-10T21:29:52.611Z,12.60
2019-04-10T21:34:55.933Z,11.87
2019-04-10T21:40:00.402Z,11.83
2019-04-10T21:45:05.264Z,12.03
2019-04-10T21:50:09.407Z,12.70
2019-04-10T21:55:13.008Z,13.87
2019-04-10T22:00:18.734Z,13.83
2019-04-10T22:05:22.288Z,12.27
2019-04-10T22:10:28.066Z,12.50
2019-04-10T22:15:33.598Z,12.20
2019-04-10T22:20:36.686Z,13.30
2019-04-10T22:25:40.120Z,12.80
2019-04-10T22:30:44.217Z,13.93
2019-04-10T22:35:48.381Z,13.10
2019-04-10T22:40:51.591Z,12.80
2019-04-10T22:45:55.009Z,13.70
2019-04-10T22:50:59.120Z,13.10
2019-04-10T22:56:02.646Z,14.17
2019-04-10T23:01:06.851Z,13.10
2019-04-10T23:06:11.105Z,13.93
2019-04-10T23:11:15.242Z,13.37
2019-04-10T23:16:18.513Z,13.33
2019-04-10T23:21:22.806Z,13.17
2019-04-10T23:26:26.665Z,13.27
2019-04-10T23:31:29.890Z,13.20
2019-04-10T23:36:33.978Z,13.67
2019-04-10T23:41:37.912Z,13.40
2019-04-10T23:46:41.855Z,14.03
2019-04-10T23:51:45.572Z,13.67
2019-04-10T23:56:50.695Z,13.40
